Main page
METAR-TAF:

METAR-TAF

Airports :

Colmenar Viejo, Spain

latitude: 40-39N, longitude: 003-44W, elevation: -999 m

Current weather observation

The report was made 16 minutes ago, at 18:00 UTC
Wind 9 kt from the East
Temperature 14°C
Humidity 100%
Pressure 1022 hPa
Visibility: 1500 m
Scattered clouds at a height of 2000 ft, Cumulonimbus.
Broken clouds at a height of 4000 ft
thunderstorm, rain

METAR: LECV 201800Z 10009KT 1500 TSRA SCT020CB BKN040 14/14 Q1022

Time: 20:16 (18:16 UTC)

Forecast

The report was made 1 hour and 16 minutes ago, at 17:00 UTC
Forecast valid from 20 at 18 UTC to 21 at 03 UTC
Wind 9 kt from the Northeast
Visibility 10 km or more
Few clouds at a height of 1500 ft
Scattered clouds at a height of 3000 ft
Probability 30% :
Temporary
from 20 at 21 UTC to 21 at 03 UTC
Visibility: 3000 m
Broken clouds at a height of 1400 ft
mist, drizzle

TAF: LECV 201700Z 2018/2103 05009KT 9999 FEW015 SCT030 PROB30 TEMPO 2021/2103 3000 BR DZ BKN014

Weather observations and forecasts of more than 4000 airports (METAR and TAF reports).

The available stations are represented by yellow and red dots on the map.

Hover mouse over dot to see the name of the station.

Then click to see weather observations and forecasts.

To change the map : click on the green buttons with a black cross to zoom in, on the green button with a dash to zoom out, or on the green arrows for adjacent maps.


METAR-TAF: